Time;durP1;ratioP1;P1;durP2;ratioP2;P2;SDS_P1;SDS_P2;PMS_P1;PMS_P2;Temp;Humidity;BMP_temperature;BMP_pressure;BME280_temperature;BME280_humidity;BME280_pressure;Samples;Min_cycle;Max_cycle;Signal;HPM_P1;HPM_P2
2022/04/22 00:01:56;;;;;;;9.05;4.85;;;6.50;99.90;;;;;;4878009;29;20041;-50
2022/04/22 00:04:22;;;;;;;7.57;4.85;;;6.50;99.90;;;;;;4877128;29;20509;-48
2022/04/22 00:06:49;;;;;;;7.17;4.70;;;6.50;99.90;;;;;;4877715;29;20053;-49
2022/04/22 00:09:16;;;;;;;10.25;5.55;;;6.50;99.90;;;;;;4877875;29;20301;-48
2022/04/22 00:11:43;;;;;;;8.13;5.18;;;6.40;99.90;;;;;;4877490;29;20495;-49
2022/04/22 00:14:10;;;;;;;7.60;5.25;;;6.50;99.90;;;;;;4877112;29;20056;-49
2022/04/22 00:16:36;;;;;;;9.23;5.35;;;6.40;99.90;;;;;;4877931;29;20418;-48
2022/04/22 00:19:03;;;;;;;10.48;5.47;;;6.40;99.90;;;;;;4861083;29;20383;-49
2022/04/22 00:21:30;;;;;;;9.82;5.53;;;6.40;99.90;;;;;;4874031;29;20042;-49
2022/04/22 00:23:57;;;;;;;8.82;5.20;;;6.40;99.90;;;;;;4873762;29;20049;-48
2022/04/22 00:26:24;;;;;;;8.10;5.40;;;6.40;99.90;;;;;;4877569;29;20060;-50
2022/04/22 00:28:52;;;;;;;8.40;5.68;;;6.40;99.90;;;;;;4877738;29;20049;-49
2022/04/22 00:31:18;;;;;;;;;;;6.30;99.90;;;;;;4876992;29;20053;-49
2022/04/22 00:33:45;;;;;;;9.27;5.80;;;6.30;99.90;;;;;;4877452;29;19956;-48
2022/04/22 00:36:12;;;;;;;9.70;5.53;;;6.30;99.90;;;;;;4877952;29;20478;-53
2022/04/22 00:38:39;;;;;;;7.80;5.38;;;6.30;99.90;;;;;;4877598;29;20053;-49
2022/04/22 00:41:05;;;;;;;7.63;5.07;;;6.20;99.90;;;;;;4876460;29;20488;-52
2022/04/22 00:43:46;;;;;;;12.85;6.80;;;6.00;99.90;;;;;;4877601;29;20048;-50
2022/04/22 00:46:13;;;;;;;11.23;6.45;;;5.70;99.90;;;;;;4877831;29;20124;-51
2022/04/22 00:48:40;;;;;;;11.32;7.20;;;5.50;99.90;;;;;;4872695;29;20056;-49
2022/04/22 00:51:08;;;;;;;10.73;7.03;;;5.40;99.90;;;;;;4874339;29;20048;-48
2022/04/22 00:53:36;;;;;;;11.52;6.40;;;5.30;99.90;;;;;;4860894;29;20049;-51
2022/04/22 00:56:05;;;;;;;9.40;6.28;;;5.30;99.90;;;;;;4875283;29;20060;-49
2022/04/22 00:58:35;;;;;;;13.52;6.38;;;5.40;99.90;;;;;;4877324;29;20045;-48
2022/04/22 01:01:02;;;;;;;11.48;6.13;;;5.50;99.90;;;;;;4877162;29;20045;-48
2022/04/22 01:03:29;;;;;;;11.13;6.10;;;5.50;99.90;;;;;;4877301;29;20092;-49
2022/04/22 01:11:32;;;;;;;9.00;5.85;;;5.60;99.90;;;;;;4878525;29;20126;-49
2022/04/22 01:14:05;;;;;;;8.88;5.78;;;5.60;99.90;;;;;;4877080;29;20426;-49
2022/04/22 01:16:35;;;;;;;8.73;5.72;;;5.60;99.90;;;;;;4873806;29;20140;-50
2022/04/22 01:19:02;;;;;;;8.20;5.55;;;5.60;99.90;;;;;;4880912;29;20061;-49
2022/04/22 01:21:29;;;;;;;8.30;5.75;;;5.60;99.90;;;;;;4880337;29;20521;-48
2022/04/22 01:23:55;;;;;;;11.23;6.07;;;5.60;99.90;;;;;;4880150;29;20049;-49
2022/04/22 01:26:22;;;;;;;12.02;6.43;;;5.60;99.90;;;;;;4880607;29;20387;-52
2022/04/22 01:28:51;;;;;;;10.05;6.00;;;5.70;99.90;;;;;;4880274;29;20057;-49
2022/04/22 01:31:21;;;;;;;11.25;6.07;;;5.60;99.90;;;;;;4879450;29;20064;-48
2022/04/22 01:33:48;;;;;;;9.15;5.70;;;5.60;99.90;;;;;;4880305;29;20506;-48
2022/04/22 01:36:16;;;;;;;9.57;5.95;;;5.60;99.90;;;;;;4880547;29;20101;-48
2022/04/22 01:38:43;;;;;;;8.48;5.93;;;5.60;99.90;;;;;;4880537;29;20055;-49
2022/04/22 01:41:09;;;;;;;9.33;5.97;;;5.60;99.90;;;;;;4879233;29;20466;-49
2022/04/22 01:43:36;;;;;;;9.35;5.80;;;5.60;99.90;;;;;;4880155;29;20293;-49
2022/04/22 01:46:04;;;;;;;11.20;7.70;;;5.60;99.90;;;;;;4880230;29;20533;-51
2022/04/22 01:48:31;;;;;;;;;;;5.60;99.90;;;;;;4880213;29;20073;-50
2022/04/22 01:50:58;;;;;;;8.52;6.10;;;5.70;99.90;;;;;;4879730;29;19923;-48
2022/04/22 01:53:25;;;;;;;10.52;6.20;;;5.70;99.90;;;;;;4880112;29;20051;-49
2022/04/22 01:55:52;;;;;;;11.40;5.85;;;5.70;99.90;;;;;;4879860;29;20431;-49
2022/04/22 01:58:19;;;;;;;9.27;6.13;;;5.60;99.90;;;;;;4879640;29;20053;-48
2022/04/22 02:00:46;;;;;;;9.30;6.22;;;5.40;99.90;;;;;;4879600;29;20298;-49
2022/04/22 02:03:12;;;;;;;9.25;6.35;;;5.30;99.90;;;;;;4879981;29;20056;-50
2022/04/22 02:05:40;;;;;;;11.52;6.15;;;5.20;99.90;;;;;;4856627;29;20587;-53
2022/04/22 02:08:07;;;;;;;;;;;5.20;99.90;;;;;;4863691;29;20056;-49
2022/04/22 02:10:34;;;;;;;11.13;6.60;;;5.30;99.90;;;;;;4879524;29;19983;-50
2022/04/22 02:13:00;;;;;;;14.13;5.63;;;5.30;99.90;;;;;;4879272;29;20491;-49
2022/04/22 02:15:28;;;;;;;8.80;5.88;;;5.30;99.90;;;;;;4872147;29;20289;-48
2022/04/22 02:17:54;;;;;;;10.73;6.13;;;5.20;99.90;;;;;;4879726;29;20097;-49
2022/04/22 02:20:22;;;;;;;11.87;6.17;;;5.10;99.90;;;;;;4879221;29;20093;-49
2022/04/22 02:22:48;;;;;;;;;;;5.20;99.90;;;;;;4879178;29;20316;-49
2022/04/22 02:25:15;;;;;;;9.85;6.10;;;5.20;99.90;;;;;;4879547;29;19979;-52
2022/04/22 02:30:28;;;;;;;11.07;6.97;;;4.80;99.90;;;;;;4878731;29;20040;-49
2022/04/22 02:32:55;;;;;;;;;;;4.70;99.90;;;;;;4879609;29;20045;-50
2022/04/22 02:35:21;;;;;;;13.02;6.93;;;4.60;99.90;;;;;;4908407;23;20739;-50
2022/04/22 02:37:50;;;;;;;14.10;7.15;;;4.50;99.90;;;;;;4903636;29;20051;-51
2022/04/22 02:45:50;;;;;;;11.85;6.85;;;4.70;99.90;;;;;;4878973;29;20502;-51
2022/04/22 02:48:17;;;;;;;10.52;6.30;;;4.80;99.90;;;;;;4878973;29;20052;-50
2022/04/22 02:50:44;;;;;;;14.10;6.20;;;4.90;99.90;;;;;;4878727;29;20044;-51
2022/04/22 02:53:11;;;;;;;11.00;6.65;;;5.00;99.90;;;;;;4876547;29;20048;-54
2022/04/22 02:55:50;;;;;;;10.32;5.68;;;5.00;99.90;;;;;;4878947;29;20063;-53
2022/04/22 02:58:18;;;;;;;11.30;6.05;;;5.00;99.90;;;;;;4878927;29;20048;-53
2022/04/22 03:00:45;;;;;;;10.23;6.28;;;4.90;99.90;;;;;;4878646;29;20100;-52
2022/04/22 03:03:12;;;;;;;11.57;6.82;;;4.90;99.90;;;;;;4877300;29;20116;-54
2022/04/22 03:05:39;;;;;;;9.30;6.00;;;4.80;99.90;;;;;;4878895;29;20391;-53
2022/04/22 03:08:06;;;;;;;9.35;5.93;;;4.70;99.90;;;;;;4878919;29;20052;-52
2022/04/22 03:10:32;;;;;;;9.57;6.25;;;4.60;99.90;;;;;;4870577;29;20654;-52
2022/04/22 03:12:59;;;;;;;11.07;6.17;;;4.60;99.90;;;;;;4862122;29;20053;-55
2022/04/22 03:15:26;;;;;;;14.07;6.35;;;4.60;99.90;;;;;;4878675;29;20293;-50
2022/04/22 03:17:53;;;;;;;9.02;5.82;;;4.60;99.90;;;;;;4877127;29;20049;-51
2022/04/22 03:20:20;;;;;;;12.75;6.63;;;4.60;99.90;;;;;;4877871;29;20059;-50
2022/04/22 03:22:47;;;;;;;9.15;6.07;;;4.60;99.90;;;;;;4878650;29;20096;-53
2022/04/22 03:25:14;;;;;;;13.80;7.22;;;4.60;99.90;;;;;;4877448;29;20049;-53
2022/04/22 03:27:40;;;;;;;10.10;6.05;;;4.60;99.90;;;;;;4872448;29;20081;-52
2022/04/22 03:30:08;;;;;;;11.10;6.43;;;4.60;99.90;;;;;;4878096;29;20045;-52
2022/04/22 03:32:34;;;;;;;13.25;6.53;;;4.60;99.90;;;;;;4878346;29;20294;-52
2022/04/22 03:35:03;;;;;;;10.63;6.47;;;4.60;99.90;;;;;;4875334;29;20128;-52
2022/04/22 03:37:31;;;;;;;;;;;4.60;99.90;;;;;;4878812;29;20561;-54
2022/04/22 03:39:57;;;;;;;14.90;6.65;;;4.50;99.90;;;;;;4877953;29;19924;-50
2022/04/22 03:42:25;;;;;;;12.13;6.65;;;4.40;99.90;;;;;;4878250;29;20048;-51
2022/04/22 03:44:52;;;;;;;11.38;6.90;;;4.40;99.90;;;;;;4874636;29;20053;-53
2022/04/22 03:47:19;;;;;;;11.37;6.50;;;4.30;99.90;;;;;;4878067;29;20049;-53
2022/04/22 03:49:46;;;;;;;12.23;7.03;;;4.30;99.90;;;;;;4877822;29;20819;-55
2022/04/22 03:52:13;;;;;;;14.90;6.90;;;4.40;99.90;;;;;;4874923;29;20045;-55
2022/04/22 03:54:40;;;;;;;12.18;7.65;;;4.40;99.90;;;;;;4877905;29;20282;-52
2022/04/22 03:59:54;;;;;;;10.80;7.35;;;4.50;99.90;;;;;;4877774;29;20052;-51
2022/04/22 04:02:21;;;;;;;13.75;7.20;;;4.50;99.90;;;;;;4873120;29;20113;-52
2022/04/22 04:04:50;;;;;;;13.13;7.15;;;4.50;99.90;;;;;;4877743;29;20060;-53
2022/04/22 04:07:17;;;;;;;12.93;6.65;;;4.50;99.90;;;;;;4877948;29;20052;-52
2022/04/22 04:18:20;;;;;;;11.85;6.65;;;4.60;99.90;;;;;;4839585;29;20066;-55
2022/04/22 04:23:32;;;;;;;10.27;6.55;;;4.60;99.90;;;;;;4862206;29;20984;-54
2022/04/22 04:25:59;;;;;;;11.40;7.00;;;4.60;99.90;;;;;;4876321;29;20048;-55
2022/04/22 04:28:29;;;;;;;12.00;6.72;;;4.60;99.90;;;;;;4877129;29;20289;-54
2022/04/22 04:30:55;;;;;;;16.02;7.57;;;4.70;99.90;;;;;;4876839;29;20041;-52
2022/04/22 04:33:22;;;;;;;17.87;8.40;;;4.70;99.90;;;;;;4876775;29;20049;-54
2022/04/22 04:35:50;;;;;;;18.33;9.90;;;4.80;99.90;;;;;;4876691;29;20845;-53
2022/04/22 04:38:17;;;;;;;16.08;9.65;;;4.80;99.90;;;;;;4876029;29;20052;-53
2022/04/22 04:40:44;;;;;;;18.30;9.70;;;4.80;99.90;;;;;;4877144;29;20384;-51
2022/04/22 04:43:11;;;;;;;15.15;9.18;;;4.80;99.90;;;;;;4876728;29;20047;-51
2022/04/22 04:45:38;;;;;;;12.65;7.85;;;4.80;99.90;;;;;;4865897;29;20057;-51
2022/04/22 04:48:05;;;;;;;10.60;7.35;;;4.90;99.90;;;;;;4881133;29;20088;-52
2022/04/22 04:50:32;;;;;;;13.18;6.95;;;4.90;99.90;;;;;;4880940;29;20117;-54
2022/04/22 04:52:59;;;;;;;13.45;6.97;;;4.90;99.90;;;;;;4881220;29;20418;-51
2022/04/22 04:55:27;;;;;;;15.15;6.50;;;4.70;99.90;;;;;;4876996;29;20060;-52
2022/04/22 04:57:54;;;;;;;14.07;7.85;;;4.70;99.90;;;;;;4881095;29;20100;-51
2022/04/22 05:00:20;;;;;;;11.90;7.80;;;4.60;99.90;;;;;;4880575;29;20101;-51
2022/04/22 05:02:47;;;;;;;13.27;7.90;;;4.70;99.90;;;;;;4881331;29;20317;-50
2022/04/22 05:05:15;;;;;;;18.70;7.78;;;4.70;99.90;;;;;;4880214;29;20546;-52
2022/04/22 05:07:57;;;;;;;14.07;8.00;;;4.70;99.90;;;;;;4880855;29;20089;-53
2022/04/22 05:10:29;;;;;;;17.83;9.07;;;4.60;99.90;;;;;;4880651;29;20128;-51
2022/04/22 05:12:56;;;;;;;13.93;9.00;;;4.70;99.90;;;;;;4880035;29;20052;-53
2022/04/22 05:15:24;;;;;;;18.02;9.60;;;4.90;99.90;;;;;;4879686;29;20105;-55
2022/04/22 05:17:51;;;;;;;;;;;5.00;99.90;;;;;;4880991;29;20510;-51
2022/04/22 05:20:20;;;;;;;12.82;7.78;;;5.00;99.90;;;;;;4879843;29;19953;-54
2022/04/22 05:22:47;;;;;;;18.05;8.25;;;5.00;99.90;;;;;;4878398;29;20409;-53
2022/04/22 05:25:16;;;;;;;14.07;8.13;;;5.00;99.90;;;;;;4863498;29;20400;-55
2022/04/22 05:27:43;;;;;;;12.70;7.30;;;5.10;99.90;;;;;;4880417;29;20049;-53
2022/04/22 05:32:58;;;;;;;17.30;9.90;;;5.20;99.90;;;;;;4877301;29;20056;-53
2022/04/22 05:35:27;;;;;;;;;;;5.30;99.90;;;;;;4880136;29;20034;-52
2022/04/22 05:37:55;;;;;;;;;;;5.30;99.90;;;;;;4881013;29;19924;-52
2022/04/22 05:40:24;;;;;;;16.48;8.38;;;5.10;99.90;;;;;;4879057;29;19938;-55
2022/04/22 05:42:53;;;;;;;16.23;8.73;;;5.00;99.90;;;;;;4879505;29;20057;-52
2022/04/22 05:45:21;;;;;;;15.07;9.10;;;5.00;99.90;;;;;;4880002;29;20048;-54
2022/04/22 05:47:48;;;;;;;24.88;10.75;;;5.10;99.90;;;;;;4875292;29;20053;-54
2022/04/22 05:50:16;;;;;;;18.90;11.32;;;5.10;99.90;;;;;;4877921;29;20057;-53
2022/04/22 05:52:43;;;;;;;17.80;9.45;;;5.20;99.90;;;;;;4880019;29;20124;-54
2022/04/22 05:55:13;;;;;;;27.50;12.95;;;5.40;99.90;;;;;;4877551;29;20049;-54
2022/04/22 05:57:40;;;;;;;17.05;9.68;;;5.50;99.90;;;;;;4879283;29;20054;-52
2022/04/22 06:00:09;;;;;;;15.80;9.98;;;5.60;99.90;;;;;;4879583;29;20053;-52
2022/04/22 06:02:41;;;;;;;16.48;10.25;;;5.60;99.90;;;;;;4878109;29;20447;-53
2022/04/22 06:05:13;;;;;;;19.85;10.38;;;5.70;99.90;;;;;;4877683;29;20056;-53
2022/04/22 06:07:41;;;;;;;23.38;10.68;;;5.80;99.90;;;;;;4879861;29;20550;-53
2022/04/22 06:12:55;;;;;;;23.20;10.70;;;5.80;99.90;;;;;;4878681;29;20105;-53
2022/04/22 06:15:22;;;;;;;20.70;10.00;;;5.70;99.90;;;;;;4879730;29;20052;-53
2022/04/22 06:17:49;;;;;;;14.45;9.55;;;5.80;99.90;;;;;;4879810;29;20410;-53
2022/04/22 06:20:16;;;;;;;18.45;8.43;;;5.80;99.90;;;;;;4875954;29;20042;-53
2022/04/22 06:22:42;;;;;;;20.67;10.02;;;6.00;99.90;;;;;;4879487;29;20053;-56
2022/04/22 06:25:10;;;;;;;15.35;9.52;;;6.10;99.90;;;;;;4879796;29;20041;-53
2022/04/22 06:27:38;;;;;;;;;;;6.20;99.90;;;;;;4879998;29;20063;-55
2022/04/22 06:30:10;;;;;;;20.75;10.43;;;6.30;99.90;;;;;;4872678;29;19931;-52
2022/04/22 06:32:38;;;;;;;16.67;9.93;;;6.40;99.90;;;;;;4879381;29;20041;-52
2022/04/22 06:35:07;;;;;;;15.15;9.73;;;6.50;99.90;;;;;;4879194;29;20160;-52
2022/04/22 06:37:36;;;;;;;19.45;9.68;;;6.60;99.90;;;;;;4879315;29;20049;-55
2022/04/22 06:45:48;;;;;;;15.25;10.13;;;6.80;99.90;;;;;;4879226;29;20053;-53
2022/04/22 06:48:34;;;;;;;15.23;8.77;;;7.00;99.90;;;;;;4878664;29;20049;-56
2022/04/22 06:51:11;;;;;;;21.15;11.70;;;7.10;99.90;;;;;;4878565;29;20425;-53
2022/04/22 06:53:39;;;;;;;20.38;10.23;;;7.30;99.90;;;;;;4878963;29;20055;-50
2022/04/22 06:56:06;;;;;;;;;;;7.50;99.90;;;;;;4878865;29;20065;-51
2022/04/22 06:58:37;;;;;;;14.95;9.05;;;7.70;99.90;;;;;;4878915;29;19979;-56
2022/04/22 07:01:05;;;;;;;13.18;8.60;;;7.80;99.90;;;;;;4878578;29;20049;-50
2022/04/22 07:03:52;;;;;;;12.48;8.43;;;8.00;99.90;;;;;;4878411;29;20084;-52
2022/04/22 07:06:19;;;;;;;14.82;8.50;;;7.90;99.90;;;;;;4875961;29;20060;-53
2022/04/22 07:08:46;;;;;;;15.85;8.95;;;8.00;99.90;;;;;;4877530;29;20052;-52
2022/04/22 07:11:22;;;;;;;12.57;7.45;;;8.20;99.90;;;;;;4878001;29;20056;-52
2022/04/22 07:13:49;;;;;;;12.05;8.27;;;8.30;99.90;;;;;;4878101;29;20063;-52
2022/04/22 07:16:17;;;;;;;15.90;7.93;;;8.40;99.90;;;;;;4876894;29;20399;-54
2022/04/22 07:18:45;;;;;;;13.57;8.35;;;8.60;99.90;;;;;;4878080;29;20040;-53
2022/04/22 07:21:12;;;;;;;13.18;8.90;;;8.80;99.90;;;;;;4877980;29;20100;-54
2022/04/22 07:23:39;;;;;;;14.25;9.20;;;8.90;99.90;;;;;;4873924;29;20057;-52
2022/04/22 07:26:09;;;;;;;15.15;8.63;;;9.10;99.90;;;;;;4877884;29;20108;-54
2022/04/22 07:28:39;;;;;;;14.02;8.50;;;9.20;99.90;;;;;;4862335;29;20052;-56
2022/04/22 07:31:09;;;;;;;12.40;8.63;;;9.30;99.90;;;;;;4878156;29;20048;-56
2022/04/22 07:33:36;;;;;;;12.57;9.07;;;9.30;99.90;;;;;;4872876;29;20463;-55
2022/04/22 07:36:03;;;;;;;14.57;8.52;;;9.40;99.90;;;;;;4878252;29;20041;-53
2022/04/22 07:38:30;;;;;;;14.52;8.77;;;9.50;99.90;;;;;;4874254;29;20109;-55
2022/04/22 07:40:57;;;;;;;14.55;8.57;;;9.60;99.90;;;;;;4877633;29;20109;-53
2022/04/22 07:48:56;;;;;;;16.85;9.63;;;9.70;99.90;;;;;;4878158;29;20120;-55
2022/04/22 07:51:26;;;;;;;12.50;8.77;;;9.80;99.90;;;;;;4877534;29;20048;-56
2022/04/22 07:53:55;;;;;;;16.15;9.10;;;9.90;99.90;;;;;;4876871;29;20101;-53
2022/04/22 07:56:23;;;;;;;13.18;8.82;;;9.90;99.90;;;;;;4877114;29;20072;-56
2022/04/22 07:58:50;;;;;;;14.85;8.30;;;10.00;99.90;;;;;;4878002;29;20052;-53
2022/04/22 08:01:17;;;;;;;18.02;9.13;;;10.10;99.90;;;;;;4877538;29;20049;-53
2022/04/22 08:03:44;;;;;;;;;;;10.10;99.90;;;;;;4872997;29;20498;-52
2022/04/22 08:06:12;;;;;;;11.13;8.25;;;10.10;99.90;;;;;;4875821;29;20277;-55
2022/04/22 08:08:39;;;;;;;15.63;8.57;;;10.10;99.90;;;;;;4877883;29;20858;-55
2022/04/22 08:11:06;;;;;;;;;;;10.30;99.90;;;;;;4860963;29;20064;-56
2022/04/22 08:13:34;;;;;;;14.20;8.90;;;10.40;99.90;;;;;;4841823;29;19924;-55
2022/04/22 08:16:01;;;;;;;15.02;9.18;;;10.60;99.90;;;;;;4876873;29;20059;-53
2022/04/22 08:18:29;;;;;;;12.48;7.82;;;10.60;99.90;;;;;;4877471;29;20045;-54
2022/04/22 08:20:55;;;;;;;11.75;8.50;;;10.70;99.90;;;;;;4874943;29;20061;-52
2022/04/22 08:23:22;;;;;;;15.30;9.85;;;10.80;99.90;;;;;;4876852;29;20109;-53
2022/04/22 08:25:49;;;;;;;12.43;9.35;;;10.90;99.90;;;;;;4877613;29;20053;-56
2022/04/22 08:28:16;;;;;;;14.55;9.55;;;11.00;99.90;;;;;;4877747;29;20071;-55
2022/04/22 08:30:43;;;;;;;19.52;9.13;;;11.10;99.90;;;;;;4876428;29;20041;-56
2022/04/22 08:33:10;;;;;;;15.15;9.05;;;11.30;99.90;;;;;;4876866;29;20049;-52
2022/04/22 08:35:37;;;;;;;13.27;9.32;;;11.40;99.90;;;;;;4902423;23;20056;-49
2022/04/22 08:38:06;;;;;;;15.18;9.55;;;11.40;99.90;;;;;;4891924;29;20048;-51
2022/04/22 08:40:37;;;;;;;15.10;9.80;;;11.50;99.90;;;;;;4893664;29;20558;-49
2022/04/22 08:43:08;;;;;;;16.25;10.52;;;11.50;99.90;;;;;;4895023;29;20049;-50
2022/04/22 08:45:35;;;;;;;16.75;10.10;;;11.60;99.90;;;;;;4878386;29;20037;-48
2022/04/22 08:50:59;;;;;;;15.45;10.30;;;11.70;99.90;;;;;;4824076;29;20126;-50
2022/04/22 08:53:29;;;;;;;14.10;10.18;;;11.70;99.90;;;;;;4867261;29;20113;-49
2022/04/22 08:55:57;;;;;;;16.45;9.75;;;11.70;99.90;;;;;;4859936;29;20538;-48
2022/04/22 08:58:29;;;;;;;18.65;9.50;;;11.70;99.90;;;;;;4871769;29;20041;-48
2022/04/22 09:00:59;;;;;;;12.05;9.73;;;11.80;99.90;;;;;;4871040;29;20498;-48
2022/04/22 09:03:27;;;;;;;13.05;9.75;;;11.90;99.90;;;;;;4870279;29;20041;-49
2022/04/22 09:05:59;;;;;;;12.65;9.27;;;11.90;99.90;;;;;;4875554;29;20056;-52
2022/04/22 09:08:26;;;;;;;20.92;11.75;;;11.90;99.90;;;;;;4870652;29;20128;-49
2022/04/22 09:10:54;;;;;;;19.13;11.27;;;11.90;99.90;;;;;;4875206;29;20037;-51
2022/04/22 09:13:39;;;;;;;21.42;12.13;;;11.80;99.90;;;;;;4871581;29;20049;-49
2022/04/22 09:16:05;;;;;;;20.02;12.55;;;11.90;99.90;;;;;;4874036;29;20052;-48
2022/04/22 09:18:38;;;;;;;19.83;13.10;;;11.90;99.90;;;;;;4872469;29;20402;-49
2022/04/22 09:21:06;;;;;;;16.75;11.35;;;11.80;99.90;;;;;;4872234;29;20050;-51
2022/04/22 09:23:35;;;;;;;19.42;11.57;;;11.80;99.90;;;;;;4872686;29;20072;-49
2022/04/22 09:26:04;;;;;;;17.90;11.93;;;11.70;99.90;;;;;;4875186;29;20056;-50
2022/04/22 09:28:32;;;;;;;17.40;11.52;;;11.60;99.90;;;;;;4870468;29;20477;-48
2022/04/22 09:31:01;;;;;;;19.48;12.05;;;11.50;99.90;;;;;;4868954;29;20041;-49
2022/04/22 09:33:45;;;;;;;18.02;12.10;;;11.60;99.90;;;;;;4874346;29;20044;-50
2022/04/22 09:44:56;;;;;;;17.88;12.60;;;11.90;99.90;;;;;;4877007;29;20049;-49
2022/04/22 09:47:28;;;;;;;17.77;12.35;;;12.00;99.90;;;;;;4878052;29;20041;-49
2022/04/22 09:49:56;;;;;;;18.77;12.07;;;11.90;99.90;;;;;;4874899;29;20055;-50
2022/04/22 09:52:31;;;;;;;19.20;13.55;;;11.90;99.90;;;;;;4878082;29;20045;-50
2022/04/22 09:55:01;;;;;;;19.08;13.48;;;11.90;99.90;;;;;;4875772;29;20561;-49
2022/04/22 09:57:55;;;;;;;22.67;13.65;;;12.20;99.90;;;;;;4874313;29;20084;-52
2022/04/22 10:00:23;;;;;;;19.80;13.23;;;12.40;99.90;;;;;;4878555;29;20049;-52
2022/04/22 10:02:52;;;;;;;18.27;13.68;;;12.40;99.90;;;;;;4877443;29;20802;-50
2022/04/22 10:05:23;;;;;;;20.13;14.00;;;12.40;99.90;;;;;;4877335;29;20041;-50
2022/04/22 10:07:55;;;;;;;20.10;14.02;;;12.30;99.90;;;;;;4872602;29;20514;-53
2022/04/22 10:10:38;;;;;;;20.98;13.02;;;12.30;99.90;;;;;;4878705;29;20052;-53
2022/04/22 10:13:12;;;;;;;19.20;13.80;;;12.40;99.90;;;;;;4875639;29;20053;-48
2022/04/22 10:15:40;;;;;;;20.88;13.98;;;12.30;99.90;;;;;;4877781;29;20055;-52
2022/04/22 10:18:14;;;;;;;20.58;14.30;;;12.50;99.90;;;;;;4872970;29;20053;-49
2022/04/22 10:20:44;;;;;;;21.42;14.32;;;12.50;99.90;;;;;;4879395;29;20049;-48
2022/04/22 10:23:11;;;;;;;21.38;14.65;;;12.40;99.90;;;;;;4875078;29;20105;-51
2022/04/22 10:25:39;;;;;;;21.77;15.07;;;12.40;99.90;;;;;;4876701;29;20041;-51
2022/04/22 10:28:06;;;;;;;;;;;12.40;99.90;;;;;;4876547;29;20045;-50
2022/04/22 10:30:35;;;;;;;21.38;14.32;;;12.40;99.90;;;;;;4873104;29;20296;-51
2022/04/22 10:33:03;;;;;;;23.90;14.25;;;12.40;99.90;;;;;;4875506;29;20045;-51
2022/04/22 10:35:30;;;;;;;;;;;12.30;99.90;;;;;;4875108;29;20045;-49
2022/04/22 10:37:58;;;;;;;22.98;14.43;;;12.30;99.90;;;;;;4875539;29;20012;-52
2022/04/22 10:40:26;;;;;;;21.15;14.75;;;12.40;99.90;;;;;;4874450;29;20101;-51
2022/04/22 10:42:55;;;;;;;;;;;12.60;99.90;;;;;;4874512;29;20056;-49
2022/04/22 10:48:25;;;;;;;24.40;15.45;;;12.80;99.90;;;;;;4875804;29;20117;-52
2022/04/22 10:51:03;;;;;;;24.08;15.60;;;12.60;99.90;;;;;;4874622;29;20100;-49
2022/04/22 10:53:34;;;;;;;22.10;15.02;;;12.60;99.90;;;;;;4873480;29;20049;-50
2022/04/22 10:56:26;;;;;;;23.63;16.15;;;12.50;99.90;;;;;;4874432;29;20060;-49
2022/04/22 10:59:20;;;;;;;25.33;16.55;;;12.50;99.90;;;;;;4871917;29;20049;-50
2022/04/22 11:01:48;;;;;;;24.63;15.98;;;12.50;99.90;;;;;;4877515;29;20556;-53
2022/04/22 11:04:20;;;;;;;23.08;15.93;;;12.70;99.90;;;;;;4860821;29;20463;-48
2022/04/22 11:06:47;;;;;;;24.67;16.73;;;12.80;99.90;;;;;;4874155;29;20037;-49
2022/04/22 11:09:31;;;;;;;24.90;16.35;;;12.70;99.90;;;;;;4873732;29;20529;-49
2022/04/22 11:11:59;;;;;;;24.35;15.60;;;12.80;99.90;;;;;;4874953;29;20125;-49
2022/04/22 11:14:28;;;;;;;25.27;16.48;;;12.70;99.90;;;;;;4872613;29;20052;-48
2022/04/22 11:17:15;;;;;;;27.88;15.95;;;12.70;99.90;;;;;;4874391;29;20451;-51
2022/04/22 11:19:57;;;;;;;28.17;15.77;;;12.80;99.90;;;;;;4875175;29;20044;-49
2022/04/22 11:22:56;;;;;;;24.98;17.00;;;12.80;99.90;;;;;;4874652;29;20052;-49
2022/04/22 11:25:26;;;;;;;25.77;16.38;;;13.00;99.90;;;;;;4876904;29;20041;-51
2022/04/22 11:27:57;;;;;;;21.42;15.48;;;13.10;99.90;;;;;;4875487;29;20041;-51
2022/04/22 11:30:27;;;;;;;23.77;16.23;;;13.30;99.90;;;;;;4876338;29;20554;-49
2022/04/22 11:33:07;;;;;;;26.60;15.80;;;13.30;99.90;;;;;;4873748;29;20057;-50
2022/04/22 11:35:35;;;;;;;24.38;16.63;;;13.30;99.90;;;;;;4870318;29;20080;-52
2022/04/22 11:38:04;;;;;;;24.48;14.27;;;13.40;99.90;;;;;;4873696;29;20049;-50
2022/04/22 11:40:37;;;;;;;23.42;15.77;;;13.40;99.90;;;;;;4874635;29;20097;-48
2022/04/22 11:43:11;;;;;;;23.13;15.55;;;13.60;99.90;;;;;;4874350;29;20056;-48
2022/04/22 11:45:41;;;;;;;22.00;15.80;;;13.60;99.90;;;;;;4877669;29;20044;-51
2022/04/22 11:48:09;;;;;;;32.45;16.58;;;13.60;99.90;;;;;;4873631;29;20085;-50
2022/04/22 11:50:41;;;;;;;26.27;16.33;;;13.60;99.90;;;;;;4877159;29;20506;-49
2022/04/22 11:53:26;;;;;;;24.10;16.42;;;13.70;99.90;;;;;;4874495;29;20061;-48
2022/04/22 11:55:53;;;;;;;23.63;16.20;;;13.70;99.90;;;;;;4872898;29;20105;-50
2022/04/22 11:58:20;;;;;;;;;;;13.80;99.90;;;;;;4872788;29;20468;-50
2022/04/22 12:06:23;;;;;;;23.55;16.38;;;13.70;99.90;;;;;;4874597;29;20041;-49
2022/04/22 12:08:53;;;;;;;24.95;16.90;;;13.70;99.90;;;;;;4874228;29;20037;-48
2022/04/22 12:11:21;;;;;;;30.42;17.35;;;13.80;99.90;;;;;;4877161;29;20053;-50
2022/04/22 12:13:48;;;;;;;23.23;17.05;;;13.70;99.90;;;;;;4874421;29;20053;-49
2022/04/22 12:16:20;;;;;;;26.08;17.05;;;13.70;99.90;;;;;;4871762;29;20044;-49
2022/04/22 12:18:48;;;;;;;26.75;16.95;;;13.80;99.90;;;;;;4855889;29;20069;-50
2022/04/22 12:21:19;;;;;;;27.27;17.70;;;13.90;99.90;;;;;;4877186;29;20061;-52
2022/04/22 12:23:49;;;;;;;25.02;16.45;;;13.80;99.90;;;;;;4874126;29;20037;-50
2022/04/22 12:26:26;;;;;;;26.50;16.95;;;13.90;99.90;;;;;;4877831;29;20376;-49
2022/04/22 12:29:13;;;;;;;23.67;16.92;;;13.90;99.90;;;;;;4877126;29;20045;-51
2022/04/22 12:31:51;;;;;;;22.58;16.50;;;14.00;99.90;;;;;;4871550;29;20485;-48
2022/04/22 12:34:32;;;;;;;26.17;16.92;;;14.10;99.90;;;;;;4877185;29;20064;-50
2022/04/22 12:37:01;;;;;;;25.70;16.23;;;14.20;99.90;;;;;;4877427;29;20060;-49
2022/04/22 12:39:41;;;;;;;22.50;15.50;;;14.20;99.90;;;;;;4872516;29;20057;-48
2022/04/22 12:42:17;;;;;;;24.52;16.35;;;14.10;99.90;;;;;;4877478;29;20063;-49
2022/04/22 12:53:28;;;;;;;23.05;15.60;;;13.90;99.90;;;;;;4877584;29;20040;-48
2022/04/22 12:56:04;;;;;;;21.52;14.70;;;13.90;99.90;;;;;;4873223;29;20489;-49
2022/04/22 12:58:34;;;;;;;18.85;14.50;;;13.90;99.90;;;;;;4876911;29;20502;-49
2022/04/22 13:01:04;;;;;;;21.73;14.82;;;14.00;99.90;;;;;;4877001;29;20060;-48
2022/04/22 13:03:37;;;;;;;18.65;13.85;;;14.00;99.90;;;;;;4877288;29;20101;-49
2022/04/22 13:06:05;;;;;;;23.38;14.60;;;14.10;99.90;;;;;;4876039;29;20105;-49
2022/04/22 13:08:32;;;;;;;23.58;13.13;;;14.10;99.90;;;;;;4880174;29;20052;-48
2022/04/22 13:11:00;;;;;;;16.30;11.73;;;14.10;99.90;;;;;;4880357;29;20105;-51
2022/04/22 13:13:27;;;;;;;16.90;12.10;;;14.20;99.90;;;;;;4880972;29;20108;-52
2022/04/22 13:15:54;;;;;;;19.95;13.85;;;14.20;99.90;;;;;;4876275;29;20045;-52
2022/04/22 13:18:21;;;;;;;17.35;12.15;;;14.20;99.90;;;;;;4880626;29;20053;-49
2022/04/22 13:20:49;;;;;;;16.65;11.40;;;14.70;99.90;;;;;;4880228;29;20586;-50
2022/04/22 13:23:16;;;;;;;17.25;11.65;;;14.30;99.90;;;;;;4879250;29;20045;-50
2022/04/22 13:25:43;;;;;;;17.70;12.40;;;14.20;99.90;;;;;;4874765;29;20052;-49
2022/04/22 13:28:10;;;;;;;19.58;11.25;;;14.20;99.90;;;;;;4880679;29;20045;-52
2022/04/22 13:30:38;;;;;;;18.88;12.20;;;14.20;99.90;;;;;;4880182;29;20120;-48
2022/04/22 13:33:05;;;;;;;17.02;12.13;;;14.20;99.90;;;;;;4876660;29;20049;-51
2022/04/22 13:35:32;;;;;;;23.73;13.30;;;14.30;99.90;;;;;;4880713;29;20049;-48
2022/04/22 13:37:58;;;;;;;18.30;12.93;;;14.30;99.90;;;;;;4880528;29;20049;-49
2022/04/22 13:40:26;;;;;;;16.90;12.32;;;14.30;99.90;;;;;;4880016;29;20509;-51
2022/04/22 13:42:53;;;;;;;18.88;13.20;;;14.20;99.90;;;;;;4873894;29;20049;-49
2022/04/22 13:53:36;;;;;;;17.38;12.63;;;14.20;99.90;;;;;;4880186;29;20056;-48
2022/04/22 13:56:03;;;;;;;17.30;13.68;;;14.40;99.90;;;;;;4879892;29;20060;-48
2022/04/22 13:58:32;;;;;;;19.05;12.60;;;14.30;99.90;;;;;;4880264;29;20052;-51
2022/04/22 14:01:01;;;;;;;20.23;12.65;;;14.30;99.90;;;;;;4877002;29;20053;-49
2022/04/22 14:03:29;;;;;;;19.90;12.93;;;14.40;99.90;;;;;;4879759;29;20067;-50
2022/04/22 14:05:55;;;;;;;;;;;14.70;99.90;;;;;;4880099;29;20112;-49
2022/04/22 14:08:22;;;;;;;16.15;12.35;;;14.40;99.90;;;;;;4879852;29;20425;-49
2022/04/22 14:10:49;;;;;;;15.40;11.95;;;14.60;99.90;;;;;;4875850;29;20100;-48
2022/04/22 14:13:16;;;;;;;16.85;12.05;;;14.60;99.90;;;;;;4879481;29;20049;-50
2022/04/22 14:15:43;;;;;;;15.45;11.80;;;14.60;99.90;;;;;;4879680;29;20049;-50
2022/04/22 14:18:10;;;;;;;;;;;14.70;99.90;;;;;;4872746;29;20575;-49